createdAt,value
2019-05-21T00:01:04.095Z,3.00
2019-05-21T00:03:35.729Z,3.37
2019-05-21T00:06:08.415Z,3.20
2019-05-21T00:08:39.669Z,3.27
2019-05-21T00:11:10.919Z,2.80
2019-05-21T00:13:42.003Z,3.55
2019-05-21T00:16:13.201Z,2.70
2019-05-21T00:18:44.291Z,3.30
2019-05-21T00:21:15.363Z,3.17
2019-05-21T00:23:46.742Z,2.70
2019-05-21T00:26:18.300Z,3.15
2019-05-21T00:29:26.209Z,2.80
2019-05-21T00:32:35.151Z,3.10
2019-05-21T00:35:47.563Z,3.17
2019-05-21T00:38:55.679Z,2.72
2019-05-21T00:42:03.488Z,2.72
2019-05-21T00:44:38.141Z,3.65
2019-05-21T00:49:40.615Z,3.12
2019-05-21T00:52:12.272Z,2.90
2019-05-21T00:54:43.623Z,3.55
2019-05-21T00:57:14.773Z,3.90
2019-05-21T00:59:46.635Z,3.20
2019-05-21T01:02:17.992Z,2.87
2019-05-21T01:05:00.114Z,3.47
2019-05-21T01:07:23.044Z,3.10
2019-05-21T01:09:54.601Z,3.02
2019-05-21T01:12:25.953Z,3.17
2019-05-21T01:14:57.408Z,3.30
2019-05-21T01:17:28.866Z,3.52
2019-05-21T01:20:00.621Z,2.90
2019-05-21T01:22:31.769Z,2.85
2019-05-21T01:25:03.225Z,2.95
2019-05-21T01:27:34.270Z,3.12
2019-05-21T01:30:06.546Z,2.67
2019-05-21T01:32:37.697Z,3.12
2019-05-21T01:35:17.020Z,2.60
2019-05-21T01:37:42.131Z,2.47
2019-05-21T01:40:13.490Z,2.95
2019-05-21T01:42:44.838Z,3.65
2019-05-21T01:45:16.294Z,4.10
2019-05-21T01:47:47.644Z,5.37
2019-05-21T01:50:18.823Z,2.70
2019-05-21T01:52:50.362Z,2.37
2019-05-21T01:55:21.812Z,3.05
2019-05-21T01:57:53.055Z,2.95
2019-05-21T02:00:24.615Z,2.70
2019-05-21T02:02:56.175Z,2.60
2019-05-21T02:05:32.914Z,2.37
2019-05-21T02:08:01.019Z,2.75
2019-05-21T02:10:32.782Z,2.77
2019-05-21T02:13:03.926Z,2.80
2019-05-21T02:15:35.593Z,2.70
2019-05-21T02:18:07.356Z,2.20
2019-05-21T02:20:39.221Z,2.47
2019-05-21T02:23:10.569Z,3.00
2019-05-21T02:25:42.165Z,2.83
2019-05-21T02:28:13.621Z,2.52
2019-05-21T02:30:44.729Z,2.45
2019-05-21T02:33:16.389Z,2.42
2019-05-21T02:35:54.099Z,2.47
2019-05-21T02:38:21.545Z,2.35
2019-05-21T02:40:53.819Z,2.65
2019-05-21T02:43:25.480Z,2.77
2019-05-21T02:45:56.620Z,2.62
2019-05-21T02:48:27.973Z,2.85
2019-05-21T02:50:59.427Z,2.27
2019-05-21T02:53:34.281Z,2.15
2019-05-21T02:56:03.787Z,2.52
2019-05-21T02:58:35.015Z,2.22
2019-05-21T03:01:08.220Z,2.47
2019-05-21T03:03:39.805Z,1.92
2019-05-21T03:06:14.308Z,2.42
2019-05-21T03:08:44.825Z,2.22
2019-05-21T03:11:16.397Z,2.60
2019-05-21T03:13:47.839Z,2.40
2019-05-21T03:16:19.201Z,2.40
2019-05-21T03:18:50.646Z,2.40
2019-05-21T03:21:21.796Z,2.08
2019-05-21T03:23:53.453Z,2.25
2019-05-21T03:26:24.707Z,2.10
2019-05-21T03:28:56.367Z,2.35
2019-05-21T03:31:27.932Z,2.08
2019-05-21T03:33:59.372Z,2.27
2019-05-21T03:36:33.926Z,2.17
2019-05-21T03:39:03.929Z,2.35
2019-05-21T03:41:35.375Z,2.17
2019-05-21T03:44:06.625Z,2.27
2019-05-21T03:46:38.096Z,1.75
2019-05-21T03:49:09.228Z,2.12
2019-05-21T03:51:40.275Z,2.02
2019-05-21T03:54:11.525Z,1.95
2019-05-21T03:56:42.670Z,2.60
2019-05-21T03:59:14.017Z,2.80
2019-05-21T04:01:45.480Z,2.92
2019-05-21T04:04:16.623Z,2.98
2019-05-21T04:06:51.941Z,2.65
2019-05-21T04:09:20.961Z,2.40
2019-05-21T04:11:53.398Z,2.45
2019-05-21T04:14:32.693Z,2.40
2019-05-21T04:17:08.538Z,2.27
2019-05-21T04:19:41.526Z,2.47
2019-05-21T04:22:15.947Z,2.30
2019-05-21T04:27:17.968Z,2.02
2019-05-21T04:29:49.596Z,4.12
2019-05-21T04:32:21.053Z,2.72
2019-05-21T04:34:52.508Z,2.20
2019-05-21T04:37:23.960Z,2.42
2019-05-21T04:39:55.518Z,2.50
2019-05-21T04:42:27.077Z,1.90
2019-05-21T04:44:58.636Z,2.25
2019-05-21T04:47:30.306Z,2.30
2019-05-21T04:50:01.463Z,2.27
2019-05-21T04:52:32.890Z,2.12
2019-05-21T04:55:05.762Z,2.30
2019-05-21T04:57:37.499Z,2.45
2019-05-21T05:00:09.611Z,2.37
2019-05-21T05:02:40.965Z,2.62
2019-05-21T05:05:12.524Z,2.90
2019-05-21T05:07:44.175Z,2.52
2019-05-21T05:10:15.840Z,2.02
2019-05-21T05:12:47.389Z,2.20
2019-05-21T05:15:19.048Z,2.10
2019-05-21T05:17:50.521Z,2.98
2019-05-21T05:20:21.892Z,2.20
2019-05-21T05:22:53.079Z,2.20
2019-05-21T05:25:24.458Z,2.10
2019-05-21T05:27:55.713Z,2.33
2019-05-21T05:30:26.954Z,2.87
2019-05-21T05:32:58.362Z,2.40
2019-05-21T05:35:29.446Z,2.42
2019-05-21T05:38:00.494Z,2.52
2019-05-21T05:40:31.735Z,2.30
2019-05-21T05:43:03.193Z,2.50
2019-05-21T05:45:34.832Z,2.20
2019-05-21T05:48:06.304Z,2.00
2019-05-21T05:50:42.258Z,2.00
2019-05-21T05:53:13.611Z,1.55
2019-05-21T05:55:45.067Z,2.50
2019-05-21T05:58:16.313Z,2.15
2019-05-21T06:00:47.677Z,2.15
2019-05-21T06:03:18.838Z,2.02
2019-05-21T06:05:50.147Z,2.47
2019-05-21T06:08:21.723Z,2.00
2019-05-21T06:10:53.178Z,1.95
2019-05-21T06:13:24.219Z,1.70
2019-05-21T06:15:55.877Z,2.35
2019-05-21T06:18:27.333Z,2.42
2019-05-21T06:20:58.993Z,2.00
2019-05-21T06:23:30.653Z,2.30
2019-05-21T06:26:02.213Z,2.00
2019-05-21T06:28:33.355Z,1.85
2019-05-21T06:31:04.815Z,1.70
2019-05-21T06:33:37.185Z,2.02
2019-05-21T06:36:08.852Z,2.05
2019-05-21T06:38:40.399Z,1.82
2019-05-21T06:41:11.870Z,1.75
2019-05-21T06:43:43.109Z,2.35
2019-05-21T06:46:14.573Z,2.65
2019-05-21T06:48:45.818Z,2.05
2019-05-21T06:51:18.421Z,2.22
2019-05-21T06:53:50.068Z,1.98
2019-05-21T06:56:21.513Z,1.90
2019-05-21T06:58:52.762Z,1.85
2019-05-21T07:01:28.522Z,2.50
2019-05-21T07:03:57.515Z,2.00
2019-05-21T07:06:29.687Z,2.08
2019-05-21T07:09:01.144Z,2.10
2019-05-21T07:11:34.239Z,2.25
2019-05-21T07:14:06.001Z,2.62
2019-05-21T07:16:37.341Z,2.35
2019-05-21T07:19:08.606Z,2.35
2019-05-21T07:21:40.402Z,2.67
2019-05-21T07:24:11.343Z,2.37
2019-05-21T07:26:42.525Z,2.40
2019-05-21T07:29:14.478Z,2.27
2019-05-21T07:31:45.777Z,2.00
2019-05-21T07:34:16.913Z,2.00
2019-05-21T07:36:48.468Z,2.80
2019-05-21T07:39:19.372Z,2.33
2019-05-21T07:41:50.765Z,2.40
2019-05-21T07:44:21.811Z,2.08
2019-05-21T07:46:53.473Z,2.12
2019-05-21T07:49:24.829Z,1.82
2019-05-21T07:51:55.867Z,2.02
2019-05-21T07:54:28.166Z,2.33
2019-05-21T07:57:00.415Z,1.90
2019-05-21T07:59:31.766Z,1.90
2019-05-21T08:02:03.324Z,1.52
2019-05-21T08:04:34.835Z,1.98
2019-05-21T08:07:06.138Z,1.62
2019-05-21T08:09:37.376Z,1.55
2019-05-21T08:12:34.561Z,2.37
2019-05-21T08:14:41.613Z,2.25
2019-05-21T08:17:13.168Z,1.50
2019-05-21T08:19:44.213Z,1.37
2019-05-21T08:22:15.668Z,1.70
2019-05-21T08:24:46.924Z,1.77
2019-05-21T08:27:18.072Z,1.70
2019-05-21T08:29:49.624Z,1.62
2019-05-21T08:32:20.871Z,1.85
2019-05-21T08:34:52.220Z,1.67
2019-05-21T08:37:23.365Z,1.60
2019-05-21T08:39:54.301Z,1.67
2019-05-21T08:42:25.996Z,1.65
2019-05-21T08:44:57.315Z,2.02
2019-05-21T08:47:28.991Z,1.75
2019-05-21T08:50:00.324Z,1.60
2019-05-21T08:52:32.024Z,3.92
2019-05-21T08:55:05.188Z,8.85
2019-05-21T08:57:36.430Z,5.67
2019-05-21T09:00:09.156Z,7.28
2019-05-21T09:02:40.468Z,8.83
2019-05-21T09:05:11.841Z,5.33
2019-05-21T09:07:43.062Z,4.53
2019-05-21T09:10:14.617Z,4.53
2019-05-21T09:12:45.758Z,3.60
2019-05-21T09:15:17.113Z,3.50
2019-05-21T09:17:48.568Z,3.25
2019-05-21T09:20:19.923Z,4.10
2019-05-21T09:22:51.067Z,7.78
2019-05-21T09:25:22.423Z,7.62
2019-05-21T09:27:55.106Z,9.00
2019-05-21T09:30:27.999Z,8.40
2019-05-21T09:32:59.589Z,8.90
2019-05-21T09:35:30.693Z,7.17
2019-05-21T09:38:02.314Z,5.67
2019-05-21T09:40:33.395Z,7.17
2019-05-21T09:43:04.547Z,6.12
2019-05-21T09:45:35.995Z,7.55
2019-05-21T09:48:07.250Z,6.22
2019-05-21T09:50:38.501Z,3.72
2019-05-21T09:53:10.266Z,2.72
2019-05-21T09:59:50.859Z,2.45
2019-05-21T10:02:33.370Z,2.42
2019-05-21T10:05:06.288Z,1.67
2019-05-21T10:07:40.567Z,2.57
2019-05-21T10:10:11.430Z,1.70
2019-05-21T10:12:43.173Z,2.08
2019-05-21T10:15:14.222Z,1.77
2019-05-21T10:17:45.580Z,1.87
2019-05-21T10:20:17.243Z,1.75
2019-05-21T10:22:48.487Z,2.05
2019-05-21T10:25:19.731Z,1.70
2019-05-21T10:27:51.079Z,1.45
2019-05-21T10:30:22.541Z,1.70
2019-05-21T10:32:54.153Z,2.10
2019-05-21T10:35:25.745Z,1.45
2019-05-21T10:37:57.101Z,1.77
2019-05-21T10:40:28.664Z,1.87
2019-05-21T10:43:00.317Z,1.90
2019-05-21T10:45:31.564Z,2.02
2019-05-21T10:48:03.131Z,1.57
2019-05-21T10:50:34.368Z,1.65
2019-05-21T10:53:05.515Z,1.77
2019-05-21T10:55:36.562Z,1.82
2019-05-21T10:58:08.221Z,1.70
2019-05-21T11:00:39.567Z,1.72
2019-05-21T11:03:12.281Z,1.65
2019-05-21T11:05:45.235Z,1.90
2019-05-21T11:08:25.105Z,2.00
2019-05-21T11:10:49.780Z,1.80
2019-05-21T11:13:22.732Z,1.77
2019-05-21T11:15:54.739Z,1.67
2019-05-21T11:18:26.086Z,1.62
2019-05-21T11:20:57.433Z,1.82
2019-05-21T11:23:28.691Z,1.98
2019-05-21T11:25:59.949Z,2.27
2019-05-21T11:28:31.293Z,2.55
2019-05-21T11:31:02.993Z,2.40
2019-05-21T11:33:34.297Z,2.15
2019-05-21T11:36:05.757Z,2.08
2019-05-21T11:38:39.981Z,2.42
2019-05-21T11:41:10.299Z,2.22
2019-05-21T11:43:41.766Z,2.67
2019-05-21T11:46:13.299Z,2.10
2019-05-21T11:48:44.855Z,2.72
2019-05-21T11:51:16.486Z,2.90
2019-05-21T11:53:47.853Z,2.42
2019-05-21T11:56:19.407Z,1.90
2019-05-21T11:58:50.963Z,1.75
2019-05-21T12:01:22.098Z,1.55
2019-05-21T12:03:53.345Z,1.62
2019-05-21T12:06:24.603Z,1.90
2019-05-21T12:08:57.319Z,2.37
2019-05-21T12:11:28.733Z,1.87
2019-05-21T12:14:00.499Z,1.90
2019-05-21T12:16:31.957Z,1.90
2019-05-21T12:19:03.186Z,2.05
2019-05-21T12:21:34.436Z,1.85
2019-05-21T12:24:06.164Z,2.00
2019-05-21T12:26:37.741Z,2.20
2019-05-21T12:29:09.001Z,2.12
2019-05-21T12:31:40.667Z,2.33
2019-05-21T12:34:12.105Z,2.15
2019-05-21T12:36:43.760Z,1.77
2019-05-21T12:39:15.219Z,1.62
2019-05-21T12:41:46.779Z,2.27
2019-05-21T12:44:18.629Z,1.98
2019-05-21T12:46:50.179Z,1.92
2019-05-21T12:49:22.057Z,1.90
2019-05-21T12:51:53.086Z,2.20
2019-05-21T12:54:24.336Z,1.67
2019-05-21T12:56:55.891Z,2.15
2019-05-21T12:59:27.145Z,2.10
2019-05-21T13:01:58.796Z,1.95
2019-05-21T13:04:30.249Z,1.87
2019-05-21T13:07:01.407Z,1.80
2019-05-21T13:09:33.458Z,1.90
2019-05-21T13:12:04.668Z,1.95
2019-05-21T13:14:36.797Z,2.00
2019-05-21T13:17:08.549Z,2.22
2019-05-21T13:19:39.893Z,2.00
2019-05-21T13:22:11.546Z,2.00
2019-05-21T13:24:42.588Z,2.08
2019-05-21T13:27:13.984Z,2.17
2019-05-21T13:29:45.301Z,1.98
2019-05-21T13:32:16.645Z,2.00
2019-05-21T13:34:48.363Z,2.58
2019-05-21T13:37:19.675Z,1.87
2019-05-21T13:39:51.431Z,1.70
2019-05-21T13:42:22.649Z,2.22
2019-05-21T13:44:53.952Z,2.30
2019-05-21T13:47:25.557Z,2.87
2019-05-21T13:49:57.005Z,2.17
2019-05-21T13:52:28.661Z,2.72
2019-05-21T13:55:01.206Z,1.98
2019-05-21T13:57:33.004Z,2.02
2019-05-21T14:00:10.322Z,2.52
2019-05-21T14:02:41.735Z,1.98
2019-05-21T14:05:13.214Z,2.35
2019-05-21T14:07:44.739Z,2.00
2019-05-21T14:10:20.689Z,3.02
2019-05-21T14:12:51.158Z,1.85
2019-05-21T14:15:24.057Z,2.10
2019-05-21T14:17:57.809Z,2.42
2019-05-21T14:20:29.632Z,2.40
2019-05-21T14:23:01.534Z,2.40
2019-05-21T14:25:33.181Z,2.02
2019-05-21T14:28:04.701Z,2.72
2019-05-21T14:30:36.454Z,2.27
2019-05-21T14:33:07.839Z,2.45
2019-05-21T14:35:39.144Z,2.15
2019-05-21T14:38:10.638Z,2.02
2019-05-21T14:40:42.023Z,2.25
2019-05-21T14:43:13.434Z,2.20
2019-05-21T14:45:45.289Z,2.02
2019-05-21T14:50:52.806Z,2.17
2019-05-21T14:53:24.051Z,2.40
2019-05-21T14:55:55.393Z,2.62
2019-05-21T14:58:29.146Z,3.77
2019-05-21T15:01:00.957Z,3.45
2019-05-21T15:03:33.250Z,3.83
2019-05-21T15:06:04.498Z,5.47
2019-05-21T15:08:36.134Z,5.30
2019-05-21T15:11:07.686Z,2.62
2019-05-21T15:13:39.044Z,2.92
2019-05-21T15:16:10.581Z,2.92
2019-05-21T15:18:41.939Z,2.40
2019-05-21T15:21:15.016Z,3.25
2019-05-21T15:23:47.927Z,4.10
2019-05-21T15:26:19.461Z,3.75
2019-05-21T15:28:51.131Z,2.67
2019-05-21T15:31:23.633Z,3.08
2019-05-21T15:33:54.833Z,3.65
2019-05-21T15:36:26.599Z,2.83
2019-05-21T15:38:57.990Z,3.45
2019-05-21T15:41:29.901Z,3.92
2019-05-21T15:44:01.459Z,3.22
2019-05-21T15:46:47.084Z,2.80
2019-05-21T15:49:05.946Z,3.20
2019-05-21T15:51:37.254Z,2.80
2019-05-21T15:54:08.589Z,3.20
2019-05-21T15:56:39.742Z,2.85
2019-05-21T15:59:10.868Z,2.80
2019-05-21T16:01:42.318Z,3.25
2019-05-21T16:04:16.397Z,3.33
2019-05-21T16:06:46.553Z,4.03
2019-05-21T16:09:18.309Z,3.27
2019-05-21T16:11:49.667Z,3.58
2019-05-21T16:14:21.516Z,3.47
2019-05-21T16:16:53.069Z,3.35
2019-05-21T16:19:24.218Z,3.83
2019-05-21T16:21:55.762Z,5.87
2019-05-21T16:24:27.627Z,6.90
2019-05-21T16:26:59.184Z,5.10
2019-05-21T16:29:30.540Z,4.50
2019-05-21T16:32:02.093Z,4.92
2019-05-21T16:34:33.837Z,3.90
2019-05-21T16:37:05.096Z,4.50
2019-05-21T16:39:36.736Z,4.85
2019-05-21T16:42:07.882Z,3.92
2019-05-21T16:44:39.555Z,4.35
2019-05-21T16:47:10.781Z,4.75
2019-05-21T16:49:42.438Z,5.10
2019-05-21T16:52:14.096Z,5.17
2019-05-21T16:54:45.984Z,5.33
2019-05-21T16:57:17.213Z,6.25
2019-05-21T16:59:48.665Z,7.00
2019-05-21T17:02:19.931Z,8.88
2019-05-21T17:04:51.457Z,6.87
2019-05-21T17:07:23.017Z,6.90
2019-05-21T17:09:54.442Z,7.03
2019-05-21T17:12:26.225Z,6.97
2019-05-21T17:14:58.920Z,7.12
2019-05-21T17:17:30.253Z,7.60
2019-05-21T17:20:02.725Z,7.45
2019-05-21T17:22:34.183Z,8.98
2019-05-21T17:25:07.067Z,11.57
2019-05-21T17:27:38.420Z,7.40
2019-05-21T17:30:10.078Z,5.83
2019-05-21T17:32:41.413Z,4.95
2019-05-21T17:35:12.869Z,5.90
2019-05-21T17:37:45.558Z,5.58
2019-05-21T17:40:17.436Z,7.40
2019-05-21T17:42:49.159Z,6.72
2019-05-21T17:45:20.993Z,11.90
2019-05-21T17:47:52.110Z,13.85
2019-05-21T17:50:23.517Z,15.30
2019-05-21T17:52:55.171Z,12.98
2019-05-21T17:55:26.624Z,6.35
2019-05-21T17:57:58.269Z,7.30
2019-05-21T18:00:40.593Z,6.37
2019-05-21T18:03:12.994Z,5.28
2019-05-21T18:05:45.538Z,6.67
2019-05-21T18:08:17.349Z,6.80
2019-05-21T18:10:50.872Z,8.10
2019-05-21T18:13:23.165Z,5.85
2019-05-21T18:15:55.532Z,4.87
2019-05-21T18:18:27.807Z,4.62
2019-05-21T18:20:59.056Z,4.67
2019-05-21T18:23:30.413Z,4.78
2019-05-21T18:26:02.575Z,6.40
2019-05-21T18:28:33.814Z,8.33
2019-05-21T18:31:06.536Z,7.35
2019-05-21T18:33:41.122Z,6.62
2019-05-21T18:36:12.408Z,6.00
2019-05-21T18:38:43.823Z,4.55
2019-05-21T18:41:15.173Z,4.50
2019-05-21T18:43:50.115Z,6.28
2019-05-21T18:46:20.647Z,4.10
2019-05-21T18:48:52.298Z,4.47
2019-05-21T18:51:23.755Z,4.20
2019-05-21T18:53:55.923Z,5.00
2019-05-21T18:56:27.465Z,5.85
2019-05-21T18:58:58.814Z,4.85
2019-05-21T19:01:30.363Z,5.53
2019-05-21T19:04:02.025Z,5.50
2019-05-21T19:06:33.310Z,4.85
2019-05-21T19:09:06.435Z,4.55
2019-05-21T19:11:38.117Z,5.67
2019-05-21T19:14:09.332Z,6.08
2019-05-21T19:16:42.198Z,5.80
2019-05-21T19:19:13.492Z,5.00
2019-05-21T19:21:45.046Z,6.33
2019-05-21T19:24:16.716Z,6.58
2019-05-21T19:26:48.264Z,5.08
2019-05-21T19:29:23.443Z,5.25
2019-05-21T19:31:55.279Z,5.60
2019-05-21T19:34:26.847Z,6.22
2019-05-21T19:36:58.697Z,5.67
2019-05-21T19:39:33.030Z,5.97
2019-05-21T19:42:04.619Z,6.35
2019-05-21T19:44:37.551Z,4.83
2019-05-21T19:47:09.500Z,5.30
2019-05-21T19:49:40.978Z,4.50
2019-05-21T19:52:12.731Z,4.55
2019-05-21T19:54:44.478Z,5.40
2019-05-21T19:57:16.571Z,5.35
2019-05-21T19:59:48.250Z,5.58
2019-05-21T20:02:20.625Z,5.42
2019-05-21T20:04:51.935Z,5.53
2019-05-21T20:07:24.712Z,5.87
2019-05-21T20:09:56.159Z,5.47
2019-05-21T20:12:27.853Z,4.70
2019-05-21T20:14:59.577Z,5.37
2019-05-21T20:17:31.162Z,5.10
2019-05-21T20:20:02.360Z,5.15
2019-05-21T20:22:34.132Z,5.20
2019-05-21T20:25:08.175Z,5.60
2019-05-21T20:27:40.033Z,6.33
2019-05-21T20:30:13.603Z,6.67
2019-05-21T20:32:46.716Z,5.78
2019-05-21T20:35:18.770Z,5.42
2019-05-21T20:37:51.429Z,5.80
2019-05-21T20:40:23.633Z,5.03
2019-05-21T20:42:55.494Z,5.72
2019-05-21T20:45:27.456Z,5.17
2019-05-21T20:47:58.910Z,5.95
2019-05-21T20:50:30.469Z,6.55
2019-05-21T20:53:02.174Z,6.50
2019-05-21T20:55:34.172Z,6.30
2019-05-21T20:58:05.816Z,6.42
2019-05-21T21:00:43.769Z,6.45
2019-05-21T21:03:15.586Z,6.87
2019-05-21T21:05:47.145Z,15.25
2019-05-21T21:08:19.738Z,12.73
2019-05-21T21:10:51.115Z,13.55
2019-05-21T21:13:22.844Z,8.73
2019-05-21T21:15:55.105Z,7.50
2019-05-21T21:18:26.596Z,6.47
2019-05-21T21:20:58.212Z,6.35
2019-05-21T21:23:31.436Z,5.90
2019-05-21T21:26:04.088Z,6.05
2019-05-21T21:28:35.319Z,6.78
2019-05-21T21:31:07.376Z,6.80
2019-05-21T21:33:39.018Z,6.62
2019-05-21T21:36:10.946Z,7.20
2019-05-21T21:38:42.744Z,8.10
2019-05-21T21:41:14.639Z,7.60
2019-05-21T21:43:46.184Z,7.33
2019-05-21T21:46:18.755Z,7.33
2019-05-21T21:48:50.824Z,6.47
2019-05-21T21:51:22.046Z,6.05
2019-05-21T21:53:53.619Z,5.95
2019-05-21T21:56:24.873Z,6.05
2019-05-21T21:58:56.219Z,5.78
2019-05-21T22:01:35.388Z,6.55
2019-05-21T22:04:07.516Z,7.05
2019-05-21T22:06:39.480Z,7.08
2019-05-21T22:09:12.234Z,6.72
2019-05-21T22:11:44.129Z,7.35
2019-05-21T22:14:16.088Z,7.15
2019-05-21T22:16:51.020Z,6.78
2019-05-21T22:19:20.741Z,6.92
2019-05-21T22:21:52.298Z,7.45
2019-05-21T22:24:24.278Z,6.35
2019-05-21T22:26:55.544Z,6.42
2019-05-21T22:29:27.281Z,6.35
2019-05-21T22:31:58.839Z,6.45
2019-05-21T22:34:30.633Z,6.47
2019-05-21T22:37:02.248Z,6.15
2019-05-21T22:39:34.116Z,6.17
2019-05-21T22:42:06.281Z,6.05
2019-05-21T22:44:38.248Z,6.65
2019-05-21T22:47:09.597Z,6.62
2019-05-21T22:49:40.743Z,6.62
2019-05-21T22:52:12.345Z,6.75
2019-05-21T22:54:43.645Z,6.42
2019-05-21T22:57:14.793Z,6.17
2019-05-21T22:59:46.765Z,7.25
2019-05-21T23:02:19.949Z,5.83
2019-05-21T23:04:52.098Z,5.85
2019-05-21T23:07:23.676Z,5.97
2019-05-21T23:09:55.540Z,6.78
2019-05-21T23:12:27.507Z,7.45
2019-05-21T23:14:59.464Z,7.75
2019-05-21T23:17:32.356Z,7.45
2019-05-21T23:20:14.467Z,7.97
2019-05-21T23:22:49.211Z,6.90
2019-05-21T23:27:54.045Z,16.00
2019-05-21T23:30:26.521Z,11.25
2019-05-21T23:32:57.872Z,13.75
2019-05-21T23:35:29.114Z,12.65
2019-05-21T23:38:01.486Z,11.25
2019-05-21T23:40:34.796Z,13.08
2019-05-21T23:43:07.777Z,9.10
2019-05-21T23:45:39.229Z,10.50
2019-05-21T23:48:12.222Z,11.28
2019-05-21T23:50:44.091Z,7.65
2019-05-21T23:53:15.427Z,10.90
2019-05-21T23:55:47.391Z,8.15
2019-05-21T23:58:18.967Z,6.25
